Time;durP1;ratioP1;P1;durP2;ratioP2;P2;SDS_P1;SDS_P2;PMS_P1;PMS_P2;Temp;Humidity;BMP_temperature;BMP_pressure;BME280_temperature;BME280_humidity;BME280_pressure;Samples;Min_cycle;Max_cycle;Signal;HPM_P1;HPM_P2
2023/05/05 00:00:50;;;;;;;5.00;2.40;;;;;;;10.09;51.88;149831.00;5083265;28;20278;-65
2023/05/05 00:03:17;;;;;;;5.38;2.63;;;;;;;10.19;51.71;149856.63;5089226;28;20461;-65
2023/05/05 00:05:42;;;;;;;7.78;2.38;;;;;;;10.14;52.68;149843.78;5083111;28;20104;-65
2023/05/05 00:08:08;;;;;;;5.88;3.00;;;;;;;10.27;52.28;149874.56;5083225;28;20036;-65
2023/05/05 00:10:34;;;;;;;6.32;2.72;;;;;;;10.22;53.61;149861.72;5095093;28;20035;-65
2023/05/05 00:12:59;;;;;;;6.53;3.03;;;;;;;10.17;54.14;149851.47;5096247;28;20024;-64
2023/05/05 00:15:26;;;;;;;4.85;2.40;;;;;;;10.07;54.03;149825.84;5085313;28;20032;-66
2023/05/05 00:17:51;;;;;;;7.00;3.10;;;;;;;10.09;53.87;149829.69;5085264;28;20266;-65
2023/05/05 00:20:17;;;;;;;4.28;2.53;;;;;;;10.03;53.60;149815.56;5084847;28;20096;-67
2023/05/05 00:22:43;;;;;;;3.97;2.53;;;;;;;9.98;54.15;149802.78;5095915;28;20043;-66
2023/05/05 00:25:08;;;;;;;4.88;2.58;;;;;;;10.01;53.70;149810.47;5103165;28;20024;-66
2023/05/05 00:27:34;;;;;;;7.45;2.80;;;;;;;10.02;54.19;149813.03;5099734;28;20025;-66
2023/05/05 00:30:00;;;;;;;4.03;2.50;;;;;;;9.95;54.61;149795.09;5082764;28;20024;-64
2023/05/05 00:32:26;;;;;;;5.45;2.70;;;;;;;9.89;55.05;149781.00;5101822;28;20324;-65
2023/05/05 00:34:52;;;;;;;3.83;2.60;;;;;;;9.73;54.69;149739.97;5088959;28;20035;-64
2023/05/05 00:37:17;;;;;;;5.97;2.90;;;;;;;9.70;55.59;149733.56;5092500;28;20091;-64
2023/05/05 00:39:43;;;;;;;4.32;2.47;;;;;;;9.61;54.35;149710.50;5098347;28;20055;-64
2023/05/05 00:42:09;;;;;;;6.13;2.65;;;;;;;9.62;54.73;149713.03;5093808;28;20028;-65
2023/05/05 00:44:40;;;;;;;7.00;3.00;;;;;;;9.66;55.98;149723.28;5102790;28;20056;-64
2023/05/05 00:47:10;;;;;;;10.18;2.72;;;;;;;9.53;55.59;149690.00;5102805;28;20028;-65
2023/05/05 00:49:37;;;;;;;10.75;3.35;;;;;;;9.53;55.86;149690.00;5090513;28;20020;-65
2023/05/05 00:52:03;;;;;;;6.18;2.92;;;;;;;9.52;57.45;149687.41;5064251;28;20105;-65
2023/05/05 00:54:29;;;;;;;4.68;2.88;;;;;;;9.51;57.63;149686.16;5084802;28;20051;-64
2023/05/05 00:56:55;;;;;;;4.53;3.17;;;;;;;9.41;57.65;149661.81;5102597;28;20265;-64
2023/05/05 00:59:21;;;;;;;3.50;2.53;;;;;;;9.34;58.29;149643.88;5084520;28;20024;-64
2023/05/05 01:01:47;;;;;;;4.80;2.92;;;;;;;9.27;58.76;149627.19;5081864;28;20066;-64
2023/05/05 01:04:12;;;;;;;8.05;3.45;;;;;;;9.25;58.80;149622.09;5082153;28;20024;-64
2023/05/05 01:06:53;;;;;;;7.95;3.35;;;;;;;9.23;59.11;149615.69;5085745;28;20039;-66
2023/05/05 01:09:35;;;;;;;6.47;3.03;;;;;;;9.29;59.58;149631.03;5101638;28;20032;-65
2023/05/05 01:12:19;;;;;;;;;;;;;;;9.26;60.10;149623.34;5082928;28;20289;-64
2023/05/05 01:15:34;;;;;;;6.03;2.92;;;;;;;9.22;59.91;149613.09;5082256;28;19942;-67
2023/05/05 01:18:31;;;;;;;7.15;3.53;;;;;;;9.04;60.01;149569.56;5050634;28;20036;-64
2023/05/05 01:21:10;;;;;;;5.13;3.20;;;;;;;9.04;60.93;149569.56;5078893;28;20037;-64
2023/05/05 01:24:04;;;;;;;5.90;3.15;;;;;;;9.09;60.44;149581.06;5101975;28;20035;-65
2023/05/05 01:26:50;;;;;;;7.68;3.50;;;;;;;9.13;59.77;149592.59;5102287;28;20059;-65
2023/05/05 01:29:37;;;;;;;9.77;3.90;;;;;;;9.10;60.12;149584.91;5041192;28;20033;-66
2023/05/05 01:32:12;;;;;;;6.35;3.85;;;;;;;9.12;59.58;149590.06;5098380;28;20064;-65
2023/05/05 01:35:09;;;;;;;5.78;3.83;;;;;;;9.12;60.40;149588.75;5094979;28;20035;-65
2023/05/05 01:37:50;;;;;;;5.93;3.60;;;;;;;8.91;60.75;149536.28;5097206;28;20088;-67
2023/05/05 01:40:21;;;;;;;8.40;4.03;;;;;;;8.92;60.66;149538.81;5097819;28;20020;-65
2023/05/05 01:42:50;;;;;;;11.85;4.30;;;;;;;9.02;59.87;149564.47;5102680;28;20031;-64
2023/05/05 01:45:18;;;;;;;9.32;4.00;;;;;;;8.89;60.65;149532.44;5106071;28;20028;-65
2023/05/05 01:47:46;;;;;;;7.68;4.05;;;;;;;8.98;60.58;149555.47;5106161;28;20027;-65
2023/05/05 01:50:13;;;;;;;8.55;4.53;;;;;;;8.83;60.24;149515.78;5089894;28;20088;-65
2023/05/05 01:52:41;;;;;;;12.77;5.35;;;;;;;9.00;59.11;149559.31;5079618;28;20095;-65
2023/05/05 01:55:09;;;;;;;10.43;4.25;;;;;;;9.01;60.36;149561.88;5080773;28;20190;-65
2023/05/05 01:57:38;;;;;;;12.43;4.97;;;;;;;9.05;60.97;149572.13;5085908;28;20095;-64
2023/05/05 02:00:05;;;;;;;9.07;4.38;;;;;;;9.10;59.63;149584.91;5085614;28;20074;-63
2023/05/05 02:02:33;;;;;;;11.35;4.88;;;;;;;9.05;59.76;149572.13;5085797;28;20028;-63
2023/05/05 02:05:01;;;;;;;11.57;4.90;;;;;;;9.02;60.96;149563.16;5085243;28;20056;-65
2023/05/05 02:07:28;;;;;;;9.85;5.38;;;;;;;8.92;61.60;149540.13;5067561;28;20040;-64
2023/05/05 02:09:55;;;;;;;11.50;5.45;;;;;;;8.98;61.12;149554.22;5085019;28;20033;-65
2023/05/05 02:12:22;;;;;;;16.23;6.30;;;;;;;8.95;60.65;149546.47;5085707;28;20321;-65
2023/05/05 02:14:49;;;;;;;14.80;6.28;;;;;;;8.95;59.66;149547.78;5105379;28;20055;-65
2023/05/05 02:17:16;;;;;;;12.02;6.38;;;;;;;8.99;60.72;149556.72;5105676;28;20028;-63
2023/05/05 02:19:44;;;;;;;12.93;5.97;;;;;;;9.02;59.96;149563.16;5081574;28;20024;-65
2023/05/05 02:22:11;;;;;;;14.82;5.95;;;;;;;9.09;60.72;149581.06;5105744;28;20031;-64
2023/05/05 02:24:36;;;;;;;15.40;5.32;;;;;;;9.13;59.97;149592.59;5103098;28;20028;-63
2023/05/05 02:27:06;;;;;;;14.02;5.53;;;;;;;9.07;60.56;149577.25;5085107;28;20040;-64
2023/05/05 02:29:46;;;;;;;14.65;6.45;;;;;;;9.15;59.52;149596.47;5104059;28;20020;-64
2023/05/05 02:32:33;;;;;;;12.45;5.85;;;;;;;8.98;58.80;149555.47;5093668;28;20317;-64
2023/05/05 02:35:12;;;;;;;9.57;4.85;;;;;;;9.08;59.32;149578.56;5091256;28;20034;-64
2023/05/05 02:37:42;;;;;;;11.52;4.80;;;;;;;9.06;58.03;149574.66;5096130;28;20043;-65
2023/05/05 02:40:10;;;;;;;9.85;3.72;;;;;;;9.21;57.82;149610.56;5105163;28;20032;-65
2023/05/05 02:42:39;;;;;;;7.82;3.63;;;;;;;9.21;56.43;149610.56;5105143;28;20051;-64
2023/05/05 02:45:13;;;;;;;6.55;3.40;;;;;;;9.21;58.41;149611.84;5086152;28;20024;-65
2023/05/05 02:47:38;;;;;;;6.47;3.00;;;;;;;9.34;56.32;149643.88;5085672;28;20028;-64
2023/05/05 02:50:05;;;;;;;5.15;3.53;;;;;;;9.39;56.81;149655.38;5084588;28;20376;-64
2023/05/05 02:52:32;;;;;;;6.32;3.50;;;;;;;9.46;54.54;149674.63;5094814;28;20099;-64
2023/05/05 02:54:58;;;;;;;5.10;2.33;;;;;;;9.53;55.22;149690.00;5099627;28;20039;-64
2023/05/05 02:57:34;;;;;;;3.47;2.25;;;;;;;9.68;54.66;149728.44;5085101;28;20024;-64
2023/05/05 03:00:27;;;;;;;4.32;2.83;;;;;;;9.72;53.75;149738.69;5104815;28;20095;-65
2023/05/05 03:03:17;;;;;;;5.95;2.47;;;;;;;9.84;54.47;149768.16;5084528;28;20031;-65
2023/05/05 03:06:01;;;;;;;3.30;2.40;;;;;;;9.79;55.81;149755.34;5084575;28;20052;-65
2023/05/05 03:08:41;;;;;;;5.07;2.50;;;;;;;9.70;55.70;149732.28;5101739;28;20051;-66
2023/05/05 03:11:22;;;;;;;3.90;2.60;;;;;;;9.74;54.73;149742.53;5089436;28;20531;-65
2023/05/05 03:13:54;;;;;;;6.72;2.92;;;;;;;9.68;55.13;149729.72;5096105;28;20054;-65
2023/05/05 03:16:22;;;;;;;3.88;2.38;;;;;;;9.70;54.35;149733.56;5096322;28;20024;-64
2023/05/05 03:18:50;;;;;;;6.68;2.30;;;;;;;9.57;54.58;149700.25;5100142;28;20028;-65
2023/05/05 03:21:15;;;;;;;3.58;2.88;;;;;;;9.53;55.69;149690.00;5104113;28;20024;-66
2023/05/05 03:23:41;;;;;;;4.93;2.75;;;;;;;9.65;55.57;149722.03;5084687;28;20100;-66
2023/05/05 03:26:07;;;;;;;4.97;2.70;;;;;;;9.62;55.45;149714.34;5080461;28;20024;-65
2023/05/05 03:28:32;;;;;;;10.50;2.90;;;;;;;9.52;56.34;149687.41;5094061;28;20194;-65
2023/05/05 03:30:58;;;;;;;4.03;2.65;;;;;;;9.19;56.50;149606.69;5083727;28;20035;-65
2023/05/05 03:33:23;;;;;;;8.00;2.47;;;;;;;9.19;57.06;149605.44;5101377;28;20032;-65
2023/05/05 03:35:49;;;;;;;7.07;2.42;;;;;;;9.20;57.41;149608.00;5103926;28;20066;-66
2023/05/05 03:38:15;;;;;;;4.75;2.55;;;;;;;8.96;58.29;149550.38;5088129;28;20024;-66
2023/05/05 03:40:40;;;;;;;3.65;2.80;;;;;;;8.98;57.70;149554.22;5094290;28;20036;-66
2023/05/05 03:43:06;;;;;;;4.15;2.60;;;;;;;9.02;57.70;149564.47;5103513;28;20054;-67
2023/05/05 03:45:32;;;;;;;6.53;2.63;;;;;;;9.31;56.88;149636.19;5103645;28;20046;-66
2023/05/05 03:47:57;;;;;;;8.93;2.83;;;;;;;9.22;57.19;149613.09;5085455;28;20024;-66
2023/05/05 03:50:23;;;;;;;5.05;2.30;;;;;;;9.28;57.87;149629.78;5068922;28;20406;-66
2023/05/05 03:52:49;;;;;;;4.18;2.30;;;;;;;9.22;56.62;149613.09;5082888;28;20073;-65
2023/05/05 03:55:14;;;;;;;5.80;2.40;;;;;;;9.42;57.30;149663.06;5071555;28;20027;-66
2023/05/05 03:57:40;;;;;;;4.07;2.20;;;;;;;9.48;56.20;149679.75;5101205;28;20039;-67
2023/05/05 04:00:09;;;;;;;5.82;2.15;;;;;;;9.56;56.54;149698.94;5083191;28;20063;-66
2023/05/05 04:02:35;;;;;;;3.60;2.03;;;;;;;9.42;56.29;149663.06;5082988;28;20088;-65
2023/05/05 04:05:01;;;;;;;3.63;1.90;;;;;;;9.42;55.94;149664.38;5096249;28;20047;-65
2023/05/05 04:07:26;;;;;;;4.45;2.10;;;;;;;9.31;57.15;149636.19;5093882;28;20040;-65
2023/05/05 04:09:52;;;;;;;4.88;2.30;;;;;;;9.20;57.36;149609.25;5085859;28;20028;-65
2023/05/05 04:12:17;;;;;;;3.60;1.80;;;;;;;9.18;56.35;149602.84;5103014;28;20020;-65
2023/05/05 04:14:43;;;;;;;2.20;2.00;;;;;;;9.15;56.71;149597.75;5083902;28;20059;-65
2023/05/05 04:17:08;;;;;;;3.13;2.00;;;;;;;8.97;57.16;149551.63;5097825;28;20085;-65
2023/05/05 04:19:34;;;;;;;7.28;2.58;;;;;;;8.76;57.61;149500.38;5105346;28;20358;-65
2023/05/05 04:22:00;;;;;;;5.13;2.10;;;;;;;8.69;58.28;149482.44;5102974;28;20051;-65
2023/05/05 04:24:25;;;;;;;7.22;2.10;;;;;;;8.58;59.43;149454.28;5102881;28;20037;-65
2023/05/05 04:26:52;;;;;;;9.68;2.42;;;;;;;8.57;60.07;149453.03;5082589;28;20074;-64
2023/05/05 04:29:17;;;;;;;3.92;1.83;;;;;;;8.71;58.78;149486.34;5098098;28;20020;-64
2023/05/05 04:31:43;;;;;;;3.83;1.98;;;;;;;8.69;59.50;149482.44;5097424;28;20194;-65
2023/05/05 04:34:09;;;;;;;3.72;2.38;;;;;;;8.63;59.42;149468.38;5098994;28;20027;-65
2023/05/05 04:36:35;;;;;;;3.05;1.80;;;;;;;8.61;59.56;149463.25;5102314;28;20344;-65
2023/05/05 04:39:01;;;;;;;4.05;2.00;;;;;;;8.73;58.35;149491.44;5102436;28;20023;-66
2023/05/05 04:41:26;;;;;;;3.30;1.92;;;;;;;9.03;58.31;149567.00;5102352;28;20040;-65
2023/05/05 04:43:54;;;;;;;3.70;1.98;;;;;;;8.97;59.27;149551.63;5102650;28;20032;-65
2023/05/05 04:46:20;;;;;;;1.80;1.63;;;;;;;9.06;59.14;149573.41;5102759;28;20024;-65
2023/05/05 04:48:46;;;;;;;4.60;2.20;;;;;;;9.58;56.79;149702.81;5099573;28;20236;-65
2023/05/05 04:51:12;;;;;;;5.15;1.92;;;;;;;10.30;55.42;149882.25;5081946;28;20025;-65
2023/05/05 04:53:37;;;;;;;3.58;2.00;;;;;;;11.04;52.93;150068.28;5099913;28;20028;-65
2023/05/05 04:56:03;;;;;;;2.67;1.67;;;;;;;11.29;51.60;150128.59;5088666;28;20052;-63
2023/05/05 04:58:29;;;;;;;4.85;1.60;;;;;;;11.37;51.80;150149.09;5090569;28;20055;-65
2023/05/05 05:00:54;;;;;;;3.97;1.67;;;;;;;11.45;51.01;150169.63;5098330;28;20028;-65
2023/05/05 05:03:20;;;;;;;3.58;1.63;;;;;;;11.99;49.68;150303.19;5081851;28;20025;-66
2023/05/05 05:05:45;;;;;;;1.90;1.67;;;;;;;12.67;48.64;150474.00;5101154;28;20063;-63
2023/05/05 05:08:11;;;;;;;4.65;1.60;;;;;;;13.38;46.92;150651.34;5087522;28;20048;-64
2023/05/05 05:10:37;;;;;;;5.63;1.90;;;;;;;13.83;46.03;150761.88;5091383;28;20039;-65
2023/05/05 05:13:02;;;;;;;3.15;1.60;;;;;;;13.28;46.60;150626.88;5101737;28;20120;-63
2023/05/05 05:15:28;;;;;;;6.88;1.92;;;;;;;12.87;47.64;150524.06;5101806;28;20027;-65
2023/05/05 05:17:53;;;;;;;3.13;1.55;;;;;;;12.87;46.79;150524.06;5072794;28;20020;-66
2023/05/05 05:20:19;;;;;;;4.55;1.88;;;;;;;12.85;46.46;150517.66;5101521;28;20020;-65
2023/05/05 05:22:45;;;;;;;4.38;1.73;;;;;;;12.19;48.08;150354.53;5091081;28;20167;-64
2023/05/05 05:25:10;;;;;;;1.20;1.10;;;;;;;12.03;49.05;150314.75;5087287;28;20031;-65
2023/05/05 05:27:36;;;;;;;2.33;1.58;;;;;;;12.18;47.76;150350.69;5082973;28;20024;-65
2023/05/05 05:30:02;;;;;;;2.95;1.40;;;;;;;11.85;48.92;150269.75;5081608;28;20020;-63
2023/05/05 05:32:28;;;;;;;4.18;1.40;;;;;;;12.01;48.42;150308.31;5098129;28;20024;-64
2023/05/05 05:34:54;;;;;;;2.65;1.40;;;;;;;11.81;49.22;150259.47;5101855;28;20358;-63
2023/05/05 05:37:19;;;;;;;2.60;1.30;;;;;;;11.96;49.24;150295.50;5094745;28;20028;-64
2023/05/05 05:39:51;;;;;;;4.25;2.00;;;;;;;11.96;49.13;150296.78;5081430;28;20024;-62
2023/05/05 05:42:16;;;;;;;;;;;;;;;11.92;49.33;150286.44;5094533;28;20059;-62
2023/05/05 05:44:42;;;;;;;3.03;1.70;;;;;;;11.95;48.71;150294.19;5101506;28;19950;-63
2023/05/05 05:47:08;;;;;;;5.15;1.95;;;;;;;12.13;49.77;150337.81;5083060;28;20024;-63
2023/05/05 05:49:33;;;;;;;2.70;1.70;;;;;;;12.00;48.62;150305.72;5092678;28;20021;-62
2023/05/05 05:51:59;;;;;;;1.75;1.17;;;;;;;11.61;49.74;150208.16;5085360;28;20044;-63
2023/05/05 05:54:24;;;;;;;4.72;1.58;;;;;;;11.56;50.93;150197.88;5101873;28;20095;-63
2023/05/05 05:56:50;;;;;;;2.40;1.80;;;;;;;11.42;50.50;150161.94;5082448;28;20032;-63
2023/05/05 05:59:15;;;;;;;3.40;1.50;;;;;;;11.21;50.43;150109.31;5095853;28;20078;-63
2023/05/05 06:01:41;;;;;;;7.68;1.70;;;;;;;11.19;50.33;150105.47;5092020;28;20021;-63
2023/05/05 06:04:07;;;;;;;2.83;1.88;;;;;;;11.30;50.52;150131.13;5085691;28;20043;-63
2023/05/05 06:06:33;;;;;;;3.58;1.70;;;;;;;11.05;50.81;150069.56;5101412;28;20155;-64
2023/05/05 06:08:58;;;;;;;3.33;1.48;;;;;;;10.85;51.88;150020.81;5081142;28;20215;-64
2023/05/05 06:11:24;;;;;;;4.78;1.60;;;;;;;10.79;51.63;150005.44;5096715;28;20309;-63
2023/05/05 06:13:49;;;;;;;2.50;1.52;;;;;;;10.77;51.82;150000.28;5090372;28;20090;-63
2023/05/05 06:16:15;;;;;;;3.42;1.95;;;;;;;10.70;52.27;149983.63;5088055;28;20024;-62
2023/05/05 06:18:40;;;;;;;3.35;1.70;;;;;;;10.74;52.01;149992.59;5102111;28;20024;-63
2023/05/05 06:21:06;;;;;;;3.95;1.58;;;;;;;10.73;51.97;149988.75;5105154;28;20028;-64
2023/05/05 06:23:32;;;;;;;1.83;1.63;;;;;;;10.55;52.35;149945.16;5105352;28;20205;-64
2023/05/05 06:25:57;;;;;;;3.95;1.65;;;;;;;10.00;53.42;149809.22;5105099;28;20028;-64
2023/05/05 06:28:23;;;;;;;8.55;2.05;;;;;;;10.29;53.51;149879.66;5098331;28;20025;-63
2023/05/05 06:30:48;;;;;;;5.43;1.80;;;;;;;10.49;53.25;149931.03;5084715;28;20047;-63
2023/05/05 06:33:14;;;;;;;3.78;1.58;;;;;;;10.40;53.13;149907.94;5099992;28;20055;-64
2023/05/05 06:35:40;;;;;;;2.72;1.52;;;;;;;10.36;53.55;149897.66;5087366;28;20029;-63
2023/05/05 06:38:05;;;;;;;4.63;1.88;;;;;;;10.53;53.13;149941.31;5097341;28;20067;-64
2023/05/05 06:40:31;;;;;;;3.30;1.55;;;;;;;10.49;52.80;149929.78;5096867;28;20021;-64
2023/05/05 06:42:56;;;;;;;1.40;1.17;;;;;;;10.21;52.75;149860.47;5102342;28;20024;-63
2023/05/05 06:45:22;;;;;;;3.03;1.35;;;;;;;10.30;52.85;149883.56;5104188;28;20089;-64
2023/05/05 06:47:48;;;;;;;3.72;1.70;;;;;;;10.22;53.10;149861.72;5104432;28;20035;-63
2023/05/05 06:50:14;;;;;;;5.93;1.70;;;;;;;10.29;52.97;149879.66;5096241;28;20079;-64
2023/05/05 06:52:40;;;;;;;1.77;1.60;;;;;;;10.16;53.66;149847.63;5103920;28;20091;-63
2023/05/05 06:55:06;;;;;;;3.67;1.70;;;;;;;10.05;53.91;149819.41;5081630;28;20082;-64
2023/05/05 06:57:31;;;;;;;1.60;1.50;;;;;;;9.88;53.56;149777.16;5065629;28;20044;-63
2023/05/05 06:59:57;;;;;;;4.20;1.88;;;;;;;9.78;53.98;149752.81;5083110;28;20171;-64
2023/05/05 07:02:23;;;;;;;1.50;1.40;;;;;;;9.83;53.59;149765.59;5083154;28;20028;-63
2023/05/05 07:04:49;;;;;;;6.22;1.80;;;;;;;9.97;53.62;149800.22;5082784;28;20052;-64
2023/05/05 07:07:15;;;;;;;6.63;3.08;;;;;;;10.18;53.84;149854.03;5088564;28;20050;-63
2023/05/05 07:09:41;;;;;;;3.78;1.70;;;;;;;10.16;53.30;149848.94;5103488;28;20023;-64
2023/05/05 07:12:07;;;;;;;4.53;1.70;;;;;;;10.14;53.06;149843.78;5103416;28;20024;-63
2023/05/05 07:14:32;;;;;;;5.45;1.88;;;;;;;10.28;52.58;149877.16;5087394;28;20024;-65
2023/05/05 07:16:58;;;;;;;2.35;1.60;;;;;;;10.38;52.42;149901.56;5083647;28;20025;-64
2023/05/05 07:19:23;;;;;;;7.45;1.58;;;;;;;10.39;52.16;149905.41;5090453;28;20239;-64
2023/05/05 07:21:49;;;;;;;5.55;1.50;;;;;;;10.50;51.46;149933.63;5103905;28;20020;-64
2023/05/05 07:24:14;;;;;;;5.38;1.70;;;;;;;10.51;51.14;149936.16;5104289;28;20020;-64
2023/05/05 07:26:40;;;;;;;2.90;1.60;;;;;;;10.51;51.88;149936.16;5086758;28;20029;-64
2023/05/05 07:29:06;;;;;;;4.63;1.50;;;;;;;10.67;51.40;149974.63;5095882;28;20121;-64
2023/05/05 07:31:31;;;;;;;2.08;1.63;;;;;;;10.69;51.25;149981.06;5082706;28;20028;-64
2023/05/05 07:33:57;;;;;;;4.65;1.83;;;;;;;10.63;51.22;149964.38;5103681;28;20024;-63
2023/05/05 07:36:23;;;;;;;5.85;1.95;;;;;;;10.70;51.21;149983.63;5099986;28;20032;-65
2023/05/05 07:38:48;;;;;;;5.07;1.80;;;;;;;10.68;50.30;149977.22;5100042;28;20031;-64
2023/05/05 07:41:15;;;;;;;3.08;1.77;;;;;;;10.77;50.84;150000.28;5093749;28;20031;-66
2023/05/05 07:43:40;;;;;;;2.95;2.40;;;;;;;10.47;51.50;149925.88;5103543;28;20061;-66
2023/05/05 07:46:07;;;;;;;5.30;2.40;;;;;;;10.28;51.94;149877.16;5085448;28;20055;-65
2023/05/05 07:48:33;;;;;;;8.60;2.55;;;;;;;10.03;51.87;149815.56;5103425;28;20016;-65
2023/05/05 07:50:58;;;;;;;4.55;2.10;;;;;;;10.05;51.85;149819.41;5103291;28;20043;-65
2023/05/05 07:53:24;;;;;;;5.97;2.05;;;;;;;10.07;51.65;149825.84;5088873;28;20031;-65
2023/05/05 07:55:50;;;;;;;2.70;1.80;;;;;;;9.92;52.74;149787.38;5092735;28;20051;-67
2023/05/05 07:58:15;;;;;;;3.05;2.00;;;;;;;9.90;52.18;149782.28;5097861;28;20058;-67
2023/05/05 08:00:42;;;;;;;3.50;1.73;;;;;;;9.90;51.72;149782.28;5082784;28;20036;-67
2023/05/05 08:03:08;;;;;;;2.95;1.70;;;;;;;10.12;51.76;149838.69;5103002;28;20044;-66
2023/05/05 08:05:34;;;;;;;3.30;1.90;;;;;;;10.04;51.10;149818.16;5098423;28;20285;-66
2023/05/05 08:08:00;;;;;;;2.20;1.70;;;;;;;10.19;51.67;149855.34;5094967;28;20099;-66
2023/05/05 08:10:25;;;;;;;5.35;1.50;;;;;;;10.14;51.12;149843.78;5099393;28;20032;-67
2023/05/05 08:12:53;;;;;;;3.67;1.83;;;;;;;10.07;51.81;149825.84;5102113;28;20035;-66
2023/05/05 08:15:18;;;;;;;5.00;1.63;;;;;;;10.12;52.78;149838.69;5102652;28;20316;-67
2023/05/05 08:17:52;;;;;;;4.57;1.80;;;;;;;10.17;52.47;149851.47;5102408;28;20032;-67
2023/05/05 08:20:19;;;;;;;4.97;1.73;;;;;;;9.72;51.92;149737.38;5100333;28;20023;-68
2023/05/05 08:22:46;;;;;;;2.97;1.50;;;;;;;9.78;52.51;149754.06;5101772;28;20486;-69
2023/05/05 08:25:13;;;;;;;4.40;1.73;;;;;;;9.52;52.36;149688.72;5102263;28;20028;-68
2023/05/05 08:27:40;;;;;;;2.42;1.73;;;;;;;9.56;52.86;149697.69;5101735;28;20019;-68
2023/05/05 08:30:07;;;;;;;2.10;1.70;;;;;;;9.37;53.21;149651.53;5101078;28;20261;-66
2023/05/05 08:32:33;;;;;;;1.92;1.50;;;;;;;9.30;53.49;149634.88;5090382;28;20028;-68
2023/05/05 08:35:02;;;;;;;3.60;1.70;;;;;;;9.25;52.73;149620.78;5101958;28;20323;-68
2023/05/05 08:37:29;;;;;;;4.40;1.55;;;;;;;9.26;53.98;149623.34;5099986;28;20095;-68
2023/05/05 08:39:56;;;;;;;3.78;1.60;;;;;;;9.09;54.74;149582.41;5100305;28;20264;-68
2023/05/05 08:42:22;;;;;;;9.65;1.88;;;;;;;9.02;55.22;149563.16;5099133;28;20055;-67
2023/05/05 08:44:47;;;;;;;4.95;2.50;;;;;;;8.64;56.26;149470.94;5102110;28;20221;-68
2023/05/05 08:47:14;;;;;;;3.22;2.05;;;;;;;8.88;56.23;149528.56;5099287;28;20096;-68
2023/05/05 08:49:45;;;;;;;7.72;2.17;;;;;;;8.53;56.55;149441.50;5099365;28;20044;-67
2023/05/05 08:52:14;;;;;;;3.17;2.03;;;;;;;8.33;57.98;149391.53;5099623;28;20080;-67
2023/05/05 08:54:54;;;;;;;4.47;2.03;;;;;;;8.62;58.26;149464.53;5101985;28;20027;-68
2023/05/05 08:57:42;;;;;;;4.97;2.30;;;;;;;8.55;58.13;149446.59;5101559;28;20047;-68
2023/05/05 09:00:09;;;;;;;6.45;2.42;;;;;;;8.76;57.77;149500.38;5101697;28;20039;-68
2023/05/05 09:02:36;;;;;;;4.35;2.00;;;;;;;8.65;56.53;149472.25;5101839;28;20050;-67
2023/05/05 09:05:04;;;;;;;5.72;1.98;;;;;;;8.73;55.33;149492.69;5101763;28;20040;-67
2023/05/05 09:07:31;;;;;;;2.38;2.05;;;;;;;9.03;54.66;149565.72;5100092;28;20049;-68
2023/05/05 09:09:59;;;;;;;2.58;1.80;;;;;;;8.94;53.97;149545.22;5099741;28;20067;-69
2023/05/05 09:12:29;;;;;;;4.28;1.83;;;;;;;8.78;53.33;149504.25;5099026;28;20032;-68
2023/05/05 09:14:55;;;;;;;3.38;2.10;;;;;;;8.92;53.68;149540.13;5094773;28;20031;-67
2023/05/05 09:17:22;;;;;;;2.65;1.70;;;;;;;9.15;53.04;149597.75;5073088;28;20047;-67
2023/05/05 09:20:06;;;;;;;10.98;2.20;;;;;;;9.17;51.99;149601.59;5101283;28;20020;-68
2023/05/05 09:22:41;;;;;;;5.65;2.03;;;;;;;9.30;51.60;149634.88;5088519;28;20024;-67
2023/05/05 09:25:16;;;;;;;3.45;1.83;;;;;;;9.39;51.53;149655.38;5099097;28;20343;-67
2023/05/05 09:27:46;;;;;;;3.28;2.17;;;;;;;9.49;50.22;149682.31;5081893;28;20332;-68
2023/05/05 09:30:23;;;;;;;4.25;2.45;;;;;;;9.44;51.77;149668.22;5081984;28;20036;-68
2023/05/05 09:32:50;;;;;;;2.40;1.95;;;;;;;9.50;49.99;149684.88;5098931;28;20024;-67
2023/05/05 09:35:17;;;;;;;3.35;1.70;;;;;;;9.30;50.58;149633.63;5102038;28;20304;-69
2023/05/05 09:37:43;;;;;;;1.88;1.70;;;;;;;9.51;49.70;149686.16;5102499;28;20020;-68
2023/05/05 09:40:11;;;;;;;4.72;2.00;;;;;;;9.61;50.91;149711.78;5088489;28;20020;-69
2023/05/05 09:42:37;;;;;;;2.85;2.33;;;;;;;9.80;50.08;149757.91;5096913;28;20028;-68
2023/05/05 09:45:25;;;;;;;3.25;1.95;;;;;;;9.77;48.67;149750.22;5102587;28;20039;-68
2023/05/05 09:47:51;;;;;;;4.75;2.28;;;;;;;9.82;48.38;149763.06;5102921;28;20023;-67
2023/05/05 09:50:20;;;;;;;4.00;2.10;;;;;;;9.95;49.09;149796.38;5103368;28;20222;-68
2023/05/05 09:52:56;;;;;;;4.15;2.28;;;;;;;9.83;48.62;149765.59;5094828;28;20093;-68
2023/05/05 09:55:22;;;;;;;3.17;1.90;;;;;;;9.21;48.77;149611.84;5086145;28;20032;-68
2023/05/05 09:57:48;;;;;;;4.28;2.20;;;;;;;9.61;48.22;149710.50;5068646;28;20401;-67
2023/05/05 10:00:14;;;;;;;7.60;2.33;;;;;;;9.77;48.41;149750.22;5068107;28;20028;-67
2023/05/05 10:02:40;;;;;;;2.95;1.95;;;;;;;9.62;47.90;149713.03;5100560;28;20020;-69
2023/05/05 10:05:14;;;;;;;7.95;2.10;;;;;;;9.68;48.67;149728.44;5097825;28;20052;-68
2023/05/05 10:07:41;;;;;;;4.93;2.13;;;;;;;9.44;49.16;149669.47;5103288;28;20059;-67
2023/05/05 10:10:09;;;;;;;5.28;2.25;;;;;;;9.54;48.60;149692.56;5103080;28;20036;-68
2023/05/05 10:12:35;;;;;;;6.25;2.45;;;;;;;9.74;48.82;149743.81;5095411;28;20073;-68
2023/05/05 10:15:02;;;;;;;3.55;2.40;;;;;;;9.71;49.60;149736.13;5102668;28;20031;-68
2023/05/05 10:17:31;;;;;;;3.72;2.03;;;;;;;9.61;48.90;149711.78;5090855;28;20036;-67
2023/05/05 10:19:59;;;;;;;5.10;2.30;;;;;;;9.49;50.49;149682.31;5093807;28;20439;-67
2023/05/05 10:22:27;;;;;;;4.60;2.10;;;;;;;9.41;49.39;149661.81;5102930;28;20055;-67
2023/05/05 10:25:02;;;;;;;2.72;1.83;;;;;;;9.31;50.15;149636.19;5105108;28;20331;-66
2023/05/05 10:27:38;;;;;;;4.88;2.30;;;;;;;9.60;49.65;149707.94;5095120;28;20032;-67
2023/05/05 10:30:05;;;;;;;3.97;1.90;;;;;;;9.61;48.49;149710.50;5101570;28;20024;-69
2023/05/05 10:32:39;;;;;;;6.07;1.92;;;;;;;9.55;49.01;149695.09;5104494;28;20122;-67
2023/05/05 10:35:08;;;;;;;4.45;2.05;;;;;;;9.37;50.08;149650.28;5076337;28;20047;-68
2023/05/05 10:37:36;;;;;;;5.93;2.30;;;;;;;8.95;50.73;149546.47;5093043;28;20223;-68
2023/05/05 10:40:03;;;;;;;3.60;1.90;;;;;;;8.87;52.05;149527.28;5101995;28;20036;-68
2023/05/05 10:42:30;;;;;;;3.67;2.38;;;;;;;8.87;50.97;149526.03;5102993;28;20023;-67
2023/05/05 10:44:56;;;;;;;3.58;2.13;;;;;;;9.09;50.16;149582.41;5104280;28;20032;-68
2023/05/05 10:47:23;;;;;;;2.60;1.90;;;;;;;8.96;49.74;149550.38;5096742;28;20088;-68
2023/05/05 10:50:35;;;;;;;3.58;1.95;;;;;;;8.61;50.92;149462.00;5098913;28;20189;-68
2023/05/05 10:53:27;;;;;;;7.97;2.60;;;;;;;8.88;52.67;149529.88;5082254;28;20028;-67
2023/05/05 10:55:56;;;;;;;;;;;;;;;8.85;52.15;149520.88;5089549;28;20036;-66
2023/05/05 10:58:34;;;;;;;2.45;1.90;;;;;;;8.86;52.58;149523.44;5088324;28;20185;-68
2023/05/05 11:01:01;;;;;;;3.65;2.00;;;;;;;8.92;51.84;149540.13;5084968;28;20094;-67
2023/05/05 11:03:27;;;;;;;2.92;1.75;;;;;;;8.82;52.58;149514.47;5084135;28;20031;-67
2023/05/05 11:06:02;;;;;;;3.50;1.90;;;;;;;8.79;51.26;149508.09;5082292;28;20043;-67
2023/05/05 11:08:31;;;;;;;3.42;1.70;;;;;;;8.69;51.34;149482.44;5066079;28;20032;-67
2023/05/05 11:10:58;;;;;;;3.67;1.80;;;;;;;8.50;51.33;149433.84;5093119;28;20035;-67
2023/05/05 11:13:24;;;;;;;4.13;1.73;;;;;;;8.70;51.47;149483.75;5104378;28;20083;-67
2023/05/05 11:15:54;;;;;;;5.60;2.30;;;;;;;8.91;51.43;149537.53;5104264;28;20023;-68
2023/05/05 11:18:39;;;;;;;4.13;2.00;;;;;;;8.57;51.39;149453.03;5084145;28;20044;-69
2023/05/05 11:21:15;;;;;;;2.75;1.80;;;;;;;8.34;51.08;149395.38;5101660;28;20043;-68
2023/05/05 11:23:49;;;;;;;3.55;2.05;;;;;;;8.52;50.56;149440.19;5104197;28;20024;-67
2023/05/05 11:26:16;;;;;;;4.97;2.25;;;;;;;8.19;50.93;149356.94;5103933;28;20028;-69
2023/05/05 11:28:55;;;;;;;6.82;2.03;;;;;;;8.38;50.12;149404.31;5103282;28;20027;-69
2023/05/05 11:31:21;;;;;;;4.13;2.20;;;;;;;8.41;49.88;149413.28;5102691;28;20032;-69
2023/05/05 11:33:46;;;;;;;2.88;2.00;;;;;;;8.48;50.33;149428.69;5103398;28;20048;-69
2023/05/05 11:36:17;;;;;;;6.35;2.15;;;;;;;8.68;49.23;149479.94;5102622;28;20019;-70
2023/05/05 11:39:07;;;;;;;3.13;2.22;;;;;;;8.73;50.28;149492.69;5100250;28;20038;-69